createdAt,value
2018-04-10T00:02:18.880Z,45.60
2018-04-10T00:04:48.037Z,42.67
2018-04-10T00:07:17.209Z,46.35
2018-04-10T00:09:46.529Z,42.22
2018-04-10T00:12:15.755Z,46.47
2018-04-10T00:14:45.313Z,44.42
2018-04-10T00:17:14.439Z,50.42
2018-04-10T00:19:43.544Z,44.05
2018-04-10T00:22:12.917Z,47.35
2018-04-10T00:24:42.033Z,48.40
2018-04-10T00:27:11.414Z,44.15
2018-04-10T00:29:40.877Z,43.80
2018-04-10T00:32:10.008Z,48.72
2018-04-10T00:34:39.194Z,51.25
2018-04-10T00:37:08.869Z,47.58
2018-04-10T00:39:38.894Z,49.92
2018-04-10T00:42:08.038Z,46.15
2018-04-10T00:44:37.480Z,47.67
2018-04-10T00:47:06.645Z,43.78
2018-04-10T00:49:35.763Z,46.63
2018-04-10T00:52:04.912Z,46.85
2018-04-10T00:54:34.044Z,46.53
2018-04-10T00:57:03.181Z,44.97
2018-04-10T00:59:32.672Z,45.78
2018-04-10T01:02:01.908Z,47.17
2018-04-10T01:04:31.044Z,50.20
2018-04-10T01:07:00.181Z,52.95
2018-04-10T01:09:29.312Z,51.95
2018-04-10T01:11:58.431Z,49.83
2018-04-10T01:14:28.115Z,49.38
2018-04-10T01:16:57.220Z,50.55
2018-04-10T01:19:26.353Z,49.50
2018-04-10T01:21:55.581Z,52.95
2018-04-10T01:24:24.693Z,50.33
2018-04-10T01:26:53.814Z,54.60
2018-04-10T01:29:22.942Z,52.40
2018-04-10T01:31:52.063Z,51.85
2018-04-10T01:34:21.184Z,51.20
2018-04-10T01:36:50.640Z,52.25
2018-04-10T01:39:19.761Z,50.22
2018-04-10T01:41:48.955Z,55.78
2018-04-10T01:44:18.099Z,52.13
2018-04-10T01:46:47.243Z,50.70
2018-04-10T01:49:16.368Z,56.85
2018-04-10T01:51:45.813Z,58.50
2018-04-10T01:54:14.946Z,60.72
2018-04-10T01:56:44.069Z,63.55
2018-04-10T01:59:13.199Z,54.85
2018-04-10T02:01:42.319Z,55.63
2018-04-10T02:04:11.461Z,56.47
2018-04-10T02:06:40.584Z,57.00
2018-04-10T02:09:09.714Z,56.80
2018-04-10T02:11:38.820Z,58.63
2018-04-10T02:14:08.243Z,57.42
2018-04-10T02:16:37.365Z,58.53
2018-04-10T02:19:06.477Z,60.60
2018-04-10T02:21:35.621Z,64.97
2018-04-10T02:24:04.752Z,67.32
2018-04-10T02:26:33.886Z,62.88
2018-04-10T02:29:03.367Z,65.65
2018-04-10T02:31:32.490Z,71.50
2018-04-10T02:34:01.632Z,66.68
2018-04-10T02:36:31.361Z,74.55
2018-04-10T02:39:00.500Z,70.12
2018-04-10T02:41:29.617Z,67.97
2018-04-10T02:43:58.757Z,72.28
2018-04-10T02:46:27.881Z,73.22
2018-04-10T02:48:57.009Z,78.80
2018-04-10T02:51:26.562Z,89.95
2018-04-10T02:53:55.665Z,81.20
2018-04-10T02:56:24.795Z,91.05
2018-04-10T02:58:53.976Z,84.45
2018-04-10T03:01:23.093Z,87.57
2018-04-10T03:03:52.208Z,93.57
2018-04-10T03:06:21.641Z,84.93
2018-04-10T03:08:50.869Z,92.10
2018-04-10T03:11:20.004Z,93.47
2018-04-10T03:13:49.140Z,93.43
2018-04-10T03:16:18.366Z,103.18
2018-04-10T03:18:47.481Z,110.00
2018-04-10T03:21:17.036Z,97.85
2018-04-10T03:23:46.259Z,105.10
2018-04-10T03:26:15.457Z,115.93
2018-04-10T03:28:44.610Z,104.55
2018-04-10T03:31:13.730Z,112.07
2018-04-10T03:33:42.912Z,114.30
2018-04-10T03:36:12.418Z,106.20
2018-04-10T03:38:41.552Z,106.40
2018-04-10T03:41:10.692Z,122.40
2018-04-10T03:43:39.838Z,115.82
2018-04-10T03:46:08.964Z,117.40
2018-04-10T03:48:38.095Z,112.40
2018-04-10T03:51:07.231Z,116.55
2018-04-10T03:53:36.359Z,123.30
2018-04-10T03:56:05.476Z,113.93
2018-04-10T03:58:34.910Z,118.15
2018-04-10T04:01:04.034Z,109.40
2018-04-10T04:03:33.168Z,123.07
2018-04-10T04:06:02.410Z,106.72
2018-04-10T04:08:31.533Z,128.35
2018-04-10T04:11:00.661Z,121.55
2018-04-10T04:13:29.798Z,125.00
2018-04-10T04:15:58.920Z,118.78
2018-04-10T04:18:34.046Z,113.60
2018-04-10T04:21:09.167Z,121.32
2018-04-10T04:23:38.638Z,125.78
2018-04-10T04:26:07.771Z,113.80
2018-04-10T04:28:36.892Z,103.82
2018-04-10T04:31:06.160Z,110.45
2018-04-10T04:33:35.277Z,114.18
2018-04-10T04:36:04.405Z,112.35
2018-04-10T04:38:33.652Z,126.82
2018-04-10T04:41:02.798Z,116.40
2018-04-10T04:43:31.932Z,113.93
2018-04-10T04:46:01.432Z,119.45
2018-04-10T04:48:30.563Z,120.68
2018-04-10T04:50:59.686Z,113.75
2018-04-10T04:53:29.124Z,120.93
2018-04-10T04:55:58.350Z,120.05
2018-04-10T04:58:27.475Z,121.65
2018-04-10T05:00:56.908Z,119.62
2018-04-10T05:03:26.020Z,126.47
2018-04-10T05:05:55.232Z,129.80
2018-04-10T05:08:24.669Z,132.52
2018-04-10T05:10:53.785Z,131.77
2018-04-10T05:13:22.913Z,127.80
2018-04-10T05:15:52.409Z,133.60
2018-04-10T05:18:21.528Z,125.62
2018-04-10T05:20:50.723Z,138.68
2018-04-10T05:23:21.033Z,135.45
2018-04-10T05:25:50.250Z,131.25
2018-04-10T05:28:19.374Z,127.65
2018-04-10T05:30:48.848Z,118.85
2018-04-10T05:33:17.975Z,127.45
2018-04-10T05:35:47.109Z,130.90
2018-04-10T05:38:16.339Z,120.70
2018-04-10T05:40:45.468Z,140.10
2018-04-10T05:43:14.589Z,125.82
2018-04-10T05:45:43.741Z,128.82
2018-04-10T05:48:12.875Z,117.95
2018-04-10T05:50:42.033Z,121.57
2018-04-10T05:53:11.537Z,116.62
2018-04-10T05:55:40.641Z,101.60
2018-04-10T05:58:09.770Z,103.80
2018-04-10T06:00:39.389Z,90.30
2018-04-10T06:03:08.516Z,94.95
2018-04-10T06:05:37.633Z,83.03
2018-04-10T06:08:06.819Z,74.87
2018-04-10T06:10:35.951Z,76.15
2018-04-10T06:13:05.082Z,79.32
2018-04-10T06:15:34.587Z,70.15
2018-04-10T06:18:03.716Z,70.80
2018-04-10T06:20:32.845Z,65.55
2018-04-10T06:23:02.388Z,65.90
2018-04-10T06:25:31.525Z,62.42
2018-04-10T06:28:00.660Z,56.22
2018-04-10T06:30:30.297Z,46.90
2018-04-10T06:32:59.424Z,55.95
2018-04-10T06:35:28.550Z,51.05
2018-04-10T06:37:57.796Z,48.87
2018-04-10T06:40:26.940Z,49.45
2018-04-10T06:42:56.095Z,47.58
2018-04-10T06:45:25.262Z,46.28
2018-04-10T06:47:54.453Z,50.08
2018-04-10T06:50:23.681Z,50.65
2018-04-10T06:52:53.153Z,51.03
2018-04-10T06:55:22.381Z,48.53
2018-04-10T06:57:51.579Z,50.58
2018-04-10T07:00:20.713Z,60.72
2018-04-10T07:02:49.841Z,60.30
2018-04-10T07:05:19.004Z,57.40
2018-04-10T07:07:48.143Z,54.13
2018-04-10T07:10:17.275Z,51.95
2018-04-10T07:12:46.399Z,55.58
2018-04-10T07:15:15.588Z,45.30
2018-04-10T07:17:44.738Z,48.40
2018-04-10T07:20:13.887Z,44.50
2018-04-10T07:22:43.057Z,47.35
2018-04-10T07:25:12.194Z,39.40
2018-04-10T07:27:41.347Z,32.17
2018-04-10T07:30:10.479Z,39.90
2018-04-10T07:32:39.597Z,34.97
2018-04-10T07:35:08.720Z,31.10
2018-04-10T07:37:38.224Z,36.17
2018-04-10T07:40:07.353Z,30.40
2018-04-10T07:42:36.478Z,30.40
2018-04-10T07:45:05.879Z,33.30
2018-04-10T07:47:35.000Z,33.00
2018-04-10T07:50:04.934Z,23.20
2018-04-10T07:52:34.393Z,25.63
2018-04-10T07:55:03.515Z,28.40
2018-04-10T07:57:32.641Z,27.67
2018-04-10T08:00:02.419Z,36.10
2018-04-10T08:02:31.553Z,28.30
2018-04-10T08:05:00.682Z,26.63
2018-04-10T08:07:29.834Z,25.07
2018-04-10T08:09:58.964Z,25.57
2018-04-10T08:12:28.931Z,25.70
2018-04-10T08:14:58.074Z,27.53
2018-04-10T08:17:27.226Z,23.20
2018-04-10T08:19:56.361Z,21.70
2018-04-10T08:22:25.637Z,21.93
2018-04-10T08:24:54.776Z,22.73
2018-04-10T08:27:23.889Z,21.20
2018-04-10T08:29:53.024Z,20.07
2018-04-10T08:32:22.165Z,21.50
2018-04-10T08:34:51.320Z,20.20
2018-04-10T08:37:20.470Z,20.80
2018-04-10T08:39:49.594Z,22.37
2018-04-10T08:42:18.732Z,18.70
2018-04-10T08:44:48.131Z,17.60
2018-04-10T08:47:17.261Z,17.40
2018-04-10T08:49:46.381Z,16.80
2018-04-10T08:52:15.517Z,19.70
2018-04-10T08:54:44.638Z,16.77
2018-04-10T08:57:14.715Z,16.23
2018-04-10T08:59:44.165Z,16.43
2018-04-10T09:02:13.710Z,16.10
2018-04-10T09:04:42.798Z,22.07
2018-04-10T09:07:11.929Z,16.70
2018-04-10T09:09:41.061Z,18.53
2018-04-10T09:12:10.217Z,19.27
2018-04-10T09:14:39.650Z,18.23
2018-04-10T09:17:08.770Z,17.90
2018-04-10T09:19:37.981Z,19.60
2018-04-10T09:22:07.102Z,18.07
2018-04-10T09:24:36.238Z,22.67
2018-04-10T09:27:05.474Z,17.23
2018-04-10T09:29:34.633Z,18.50
2018-04-10T09:32:03.759Z,18.07
2018-04-10T09:34:32.891Z,18.23
2018-04-10T09:37:02.319Z,20.97
2018-04-10T09:39:31.439Z,23.20
2018-04-10T09:42:00.577Z,22.87
2018-04-10T09:44:30.031Z,20.30
2018-04-10T09:46:59.170Z,19.83
2018-04-10T09:49:28.297Z,21.33
2018-04-10T09:51:57.442Z,21.70
2018-04-10T09:54:26.558Z,21.13
2018-04-10T09:56:55.687Z,24.23
2018-04-10T09:59:25.765Z,24.30
2018-04-10T10:01:54.958Z,25.07
2018-04-10T10:04:24.076Z,20.17
2018-04-10T10:06:53.524Z,23.93
2018-04-10T10:09:22.755Z,24.23
2018-04-10T10:11:51.893Z,22.73
2018-04-10T10:14:21.033Z,20.00
2018-04-10T10:16:50.155Z,22.53
2018-04-10T10:19:19.290Z,22.93
2018-04-10T10:21:48.430Z,21.80
2018-04-10T10:24:17.574Z,21.53
2018-04-10T10:26:46.705Z,22.47
2018-04-10T10:29:15.857Z,21.90
2018-04-10T10:31:44.977Z,21.87
2018-04-10T10:34:14.215Z,20.23
2018-04-10T10:36:43.351Z,23.57
2018-04-10T10:39:12.504Z,25.40
2018-04-10T10:41:41.603Z,27.93
2018-04-10T10:44:10.802Z,25.30
2018-04-10T10:46:39.938Z,24.20
2018-04-10T10:49:09.060Z,21.83
2018-04-10T10:51:38.207Z,22.70
2018-04-10T10:54:08.215Z,23.77
2018-04-10T10:56:37.357Z,23.73
2018-04-10T10:59:06.773Z,19.33
2018-04-10T11:01:35.997Z,24.60
2018-04-10T11:04:05.125Z,20.43
2018-04-10T11:06:34.561Z,20.40
2018-04-10T11:09:03.693Z,21.43
2018-04-10T11:11:32.960Z,20.10
2018-04-10T11:14:02.101Z,17.77
2018-04-10T11:16:31.217Z,20.30
2018-04-10T11:19:00.345Z,17.83
2018-04-10T11:21:29.509Z,20.27
2018-04-10T11:23:58.633Z,18.83
2018-04-10T11:26:27.753Z,18.50
2018-04-10T11:28:56.900Z,19.30
2018-04-10T11:31:26.058Z,19.07
2018-04-10T11:33:55.181Z,18.63
2018-04-10T11:36:24.627Z,21.37
2018-04-10T11:38:53.757Z,21.00
2018-04-10T11:41:22.899Z,18.47
2018-04-10T11:43:52.072Z,22.73
2018-04-10T11:46:21.218Z,18.70
2018-04-10T11:48:50.366Z,18.50
2018-04-10T11:51:19.759Z,18.07
2018-04-10T11:53:48.899Z,18.57
2018-04-10T11:56:18.039Z,21.20
2018-04-10T11:58:47.516Z,20.47
2018-04-10T12:01:16.660Z,18.23
2018-04-10T12:03:45.818Z,17.73
2018-04-10T12:06:15.348Z,19.00
2018-04-10T12:08:44.494Z,16.97
2018-04-10T12:11:13.645Z,17.97
2018-04-10T12:13:43.050Z,16.87
2018-04-10T12:16:12.226Z,19.63
2018-04-10T12:18:41.349Z,17.00
2018-04-10T12:21:10.930Z,17.73
2018-04-10T12:23:40.057Z,18.70
2018-04-10T12:26:09.185Z,17.50
2018-04-10T12:28:38.698Z,17.30
2018-04-10T12:31:07.819Z,18.07
2018-04-10T12:33:36.953Z,14.00
2018-04-10T12:36:06.126Z,16.37
2018-04-10T12:38:35.270Z,16.93
2018-04-10T12:41:04.407Z,12.43
2018-04-10T12:43:33.547Z,11.93
2018-04-10T12:46:02.685Z,12.20
2018-04-10T12:48:31.826Z,11.97
2018-04-10T12:51:01.483Z,13.33
2018-04-10T12:53:30.602Z,15.77
2018-04-10T12:55:59.746Z,14.63
2018-04-10T12:58:28.885Z,13.70
2018-04-10T13:00:58.001Z,14.07
2018-04-10T13:03:27.121Z,13.63
2018-04-10T13:05:56.265Z,12.10
2018-04-10T13:08:25.413Z,10.43
2018-04-10T13:10:54.538Z,10.40
2018-04-10T13:13:23.692Z,10.63
2018-04-10T13:15:52.844Z,11.03
2018-04-10T13:18:21.978Z,11.40
2018-04-10T13:20:51.400Z,14.20
2018-04-10T13:23:20.527Z,11.47
2018-04-10T13:25:49.667Z,13.70
2018-04-10T13:28:18.818Z,12.70
2018-04-10T13:30:47.946Z,13.93
2018-04-10T13:33:17.069Z,13.50
2018-04-10T13:35:46.243Z,15.40
2018-04-10T13:38:15.413Z,16.00
2018-04-10T13:40:44.546Z,15.43
2018-04-10T13:43:13.715Z,14.53
2018-04-10T13:45:42.841Z,13.67
2018-04-10T13:48:11.986Z,15.63
2018-04-10T13:50:41.832Z,14.63
2018-04-10T13:53:10.962Z,14.60
2018-04-10T13:55:40.105Z,14.73
2018-04-10T13:58:09.601Z,16.10
2018-04-10T14:00:38.758Z,15.80
2018-04-10T14:03:07.888Z,15.87
2018-04-10T14:05:37.037Z,15.17
2018-04-10T14:08:06.170Z,15.17
2018-04-10T14:10:35.304Z,15.37
2018-04-10T14:13:04.782Z,16.60
2018-04-10T14:15:34.013Z,16.47
2018-04-10T14:18:03.137Z,15.93
2018-04-10T14:20:32.734Z,15.70
2018-04-10T14:23:01.954Z,16.40
2018-04-10T14:25:31.065Z,10.40
2018-04-10T14:28:00.584Z,10.57
2018-04-10T14:30:29.810Z,13.37
2018-04-10T14:32:58.939Z,10.20
2018-04-10T14:35:28.091Z,10.90
2018-04-10T14:37:57.304Z,10.60
2018-04-10T14:40:26.452Z,11.57
2018-04-10T14:42:55.581Z,10.57
2018-04-10T14:45:24.698Z,9.60
2018-04-10T14:47:53.817Z,11.73
2018-04-10T14:50:22.969Z,13.30
2018-04-10T14:52:52.094Z,12.33
2018-04-10T14:55:21.245Z,11.63
2018-04-10T14:57:50.657Z,10.97
2018-04-10T15:00:19.797Z,14.13
2018-04-10T15:02:48.941Z,14.00
2018-04-10T15:05:18.373Z,13.40
2018-04-10T15:07:47.557Z,12.87
2018-04-10T15:10:16.765Z,14.93
2018-04-10T15:12:46.235Z,13.57
2018-04-10T15:15:15.464Z,13.20
2018-04-10T15:17:44.589Z,13.77
2018-04-10T15:20:14.037Z,13.37
2018-04-10T15:22:43.153Z,12.23
2018-04-10T15:25:12.283Z,12.37
2018-04-10T15:27:41.420Z,12.00
2018-04-10T15:30:10.621Z,12.27
2018-04-10T15:32:39.745Z,16.47
2018-04-10T15:35:08.888Z,13.40
2018-04-10T15:37:38.038Z,13.30
2018-04-10T15:40:07.171Z,13.23
2018-04-10T15:42:36.323Z,13.87
2018-04-10T15:45:05.438Z,14.70
2018-04-10T15:47:34.632Z,14.80
2018-04-10T15:50:03.794Z,14.67
2018-04-10T15:52:32.932Z,20.83
2018-04-10T15:55:02.109Z,14.63
2018-04-10T15:57:32.128Z,17.13
2018-04-10T16:00:01.248Z,13.30
2018-04-10T16:02:30.397Z,13.53
2018-04-10T16:04:59.546Z,14.00
2018-04-10T16:07:28.691Z,13.93
2018-04-10T16:09:57.835Z,14.70
2018-04-10T16:12:26.977Z,14.10
2018-04-10T16:14:56.119Z,18.43
2018-04-10T16:17:25.344Z,23.43
2018-04-10T16:19:54.541Z,20.00
2018-04-10T16:22:23.669Z,20.17
2018-04-10T16:24:52.822Z,29.13
2018-04-10T16:27:22.293Z,28.53
2018-04-10T16:29:51.413Z,29.90
2018-04-10T16:32:20.586Z,34.07
2018-04-10T16:34:50.060Z,33.93
2018-04-10T16:37:19.251Z,35.83
2018-04-10T16:39:48.403Z,35.90
2018-04-10T16:42:17.900Z,38.20
2018-04-10T16:44:47.048Z,40.83
2018-04-10T16:47:16.281Z,36.87
2018-04-10T16:49:45.450Z,40.23
2018-04-10T16:52:14.621Z,38.00
2018-04-10T16:54:43.753Z,42.00
2018-04-10T16:57:12.905Z,39.60
2018-04-10T16:59:42.061Z,39.80
2018-04-10T17:02:11.205Z,41.97
2018-04-10T17:04:40.457Z,47.10
2018-04-10T17:07:09.593Z,41.23
2018-04-10T17:09:38.721Z,41.13
2018-04-10T17:12:07.862Z,44.80
2018-04-10T17:14:37.028Z,42.20
2018-04-10T17:17:06.161Z,45.20
2018-04-10T17:19:35.313Z,49.13
2018-04-10T17:22:04.432Z,42.63
2018-04-10T17:24:33.600Z,43.10
2018-04-10T17:27:03.122Z,41.57
2018-04-10T17:29:32.271Z,41.10
2018-04-10T17:32:01.400Z,42.57
2018-04-10T17:34:31.680Z,41.70
2018-04-10T17:37:00.801Z,39.33
2018-04-10T17:39:29.944Z,42.63
2018-04-10T17:41:59.098Z,41.63
2018-04-10T17:44:28.228Z,42.50
2018-04-10T17:46:57.377Z,45.53
2018-04-10T17:49:26.631Z,42.00
2018-04-10T17:51:55.824Z,44.37
2018-04-10T17:54:24.953Z,40.20
2018-04-10T17:56:54.108Z,44.37
2018-04-10T17:59:23.235Z,41.03
2018-04-10T18:01:52.374Z,44.30
2018-04-10T18:04:21.522Z,43.27
2018-04-10T18:06:50.669Z,40.37
2018-04-10T18:09:19.842Z,44.60
2018-04-10T18:11:49.009Z,44.33
2018-04-10T18:14:18.147Z,44.57
2018-04-10T18:16:47.281Z,42.70
2018-04-10T18:19:16.421Z,50.57
2018-04-10T18:21:45.547Z,47.33
2018-04-10T18:24:14.669Z,46.67
2018-04-10T18:26:43.813Z,43.60
2018-04-10T18:29:12.938Z,44.63
2018-04-10T18:31:42.076Z,47.83
2018-04-10T18:34:11.541Z,43.83
2018-04-10T18:36:40.710Z,49.17
2018-04-10T18:39:09.843Z,49.50
2018-04-10T18:41:38.994Z,44.00
2018-04-10T18:44:08.261Z,43.67
2018-04-10T18:46:37.412Z,45.23
2018-04-10T18:49:06.929Z,49.90
2018-04-10T18:51:36.057Z,49.50
2018-04-10T18:54:05.213Z,49.70
2018-04-10T18:56:34.353Z,44.27
2018-04-10T18:59:03.484Z,46.57
2018-04-10T19:01:32.736Z,45.07
2018-04-10T19:04:01.889Z,43.20
2018-04-10T19:06:31.129Z,46.83
2018-04-10T19:09:00.274Z,44.53
2018-04-10T19:11:29.526Z,48.90
2018-04-10T19:13:58.671Z,46.30
2018-04-10T19:16:27.813Z,47.77
2018-04-10T19:18:57.260Z,51.13
2018-04-10T19:21:26.400Z,54.20
2018-04-10T19:23:55.557Z,52.17
2018-04-10T19:26:24.706Z,53.03
2018-04-10T19:28:53.906Z,50.73
2018-04-10T19:31:23.046Z,52.63
2018-04-10T19:33:52.469Z,56.10
2018-04-10T19:36:21.661Z,55.10
2018-04-10T19:38:50.778Z,62.03
2018-04-10T19:41:19.917Z,59.47
2018-04-10T19:43:49.057Z,63.20
2018-04-10T19:46:18.236Z,59.60
2018-04-10T19:48:47.486Z,72.33
2018-04-10T19:51:16.633Z,68.73
2018-04-10T19:53:45.761Z,74.73
2018-04-10T19:56:15.283Z,73.97
2018-04-10T19:58:44.429Z,75.33
2018-04-10T20:01:13.577Z,78.70
2018-04-10T20:03:42.715Z,85.67
2018-04-10T20:06:11.886Z,81.67
2018-04-10T20:08:41.012Z,81.17
2018-04-10T20:11:10.209Z,86.17
2018-04-10T20:13:39.341Z,91.40
2018-04-10T20:16:08.481Z,87.37
2018-04-10T20:18:37.638Z,89.80
2018-04-10T20:21:06.768Z,98.73
2018-04-10T20:23:35.907Z,99.87
2018-04-10T20:26:05.065Z,100.03
2018-04-10T20:28:34.213Z,101.15
2018-04-10T20:31:03.353Z,99.53
2018-04-10T20:33:32.509Z,100.10
2018-04-10T20:36:01.726Z,102.23
2018-04-10T20:38:30.926Z,98.75
2018-04-10T20:41:00.123Z,100.95
2018-04-10T20:43:29.281Z,103.73
2018-04-10T20:45:58.444Z,104.10
2018-04-10T20:48:27.893Z,105.80
2018-04-10T20:50:57.113Z,106.80
2018-04-10T20:53:26.246Z,100.17
2018-04-10T20:55:55.433Z,102.85
2018-04-10T20:58:24.572Z,98.00
2018-04-10T21:00:53.805Z,94.87
2018-04-10T21:03:22.963Z,88.43
2018-04-10T21:05:52.097Z,97.30
2018-04-10T21:08:21.239Z,91.33
2018-04-10T21:10:50.800Z,85.53
2018-04-10T21:13:19.929Z,83.95
2018-04-10T21:15:49.192Z,84.37
2018-04-10T21:18:18.613Z,80.10
2018-04-10T21:20:47.744Z,85.25
2018-04-10T21:23:16.988Z,88.00
2018-04-10T21:25:46.171Z,79.40
2018-04-10T21:28:15.270Z,91.40
2018-04-10T21:30:44.429Z,80.05
2018-04-10T21:33:13.931Z,75.80
2018-04-10T21:35:43.152Z,80.22
2018-04-10T21:38:12.286Z,76.97
2018-04-10T21:40:41.753Z,75.65
2018-04-10T21:43:16.613Z,83.25
2018-04-10T21:45:45.750Z,74.50
2018-04-10T21:48:14.913Z,67.28
2018-04-10T21:50:44.053Z,71.62
2018-04-10T21:53:13.577Z,70.12
2018-04-10T21:55:42.762Z,69.05
2018-04-10T21:58:11.898Z,65.07
2018-04-10T22:00:41.337Z,60.55
2018-04-10T22:03:10.477Z,65.03
2018-04-10T22:05:39.611Z,72.37
2018-04-10T22:08:09.232Z,60.70
2018-04-10T22:10:38.379Z,68.57
2018-04-10T22:13:07.586Z,63.42
2018-04-10T22:15:37.060Z,61.13
2018-04-10T22:18:06.214Z,66.78
2018-04-10T22:20:35.341Z,61.05
2018-04-10T22:23:04.489Z,59.30
2018-04-10T22:25:33.628Z,59.47
2018-04-10T22:28:02.766Z,53.15
2018-04-10T22:30:32.196Z,66.35
2018-04-10T22:33:01.294Z,77.55
2018-04-10T22:35:30.437Z,0.30
2018-04-10T22:38:00.010Z,0.60
2018-04-10T22:40:29.141Z,0.30
2018-04-10T22:42:58.250Z,0.30
2018-04-10T22:45:27.813Z,0.30
2018-04-10T22:47:56.929Z,0.40
2018-04-10T22:50:26.041Z,0.30
2018-04-10T22:52:55.506Z,0.30
2018-04-10T22:55:24.636Z,0.30
2018-04-10T22:57:53.755Z,0.30
2018-04-10T23:00:28.941Z,0.30
2018-04-10T23:02:58.051Z,0.50
2018-04-10T23:05:27.177Z,0.30
2018-04-10T23:07:56.554Z,0.30
2018-04-10T23:10:25.684Z,0.30
2018-04-10T23:12:54.793Z,0.30
2018-04-10T23:15:24.253Z,0.30
2018-04-10T23:17:53.367Z,0.30
2018-04-10T23:20:23.391Z,0.40
2018-04-10T23:22:52.865Z,1.00
2018-04-10T23:25:21.977Z,0.30
2018-04-10T23:27:51.113Z,0.30
2018-04-10T23:30:20.881Z,0.30
2018-04-10T23:32:49.993Z,0.30
2018-04-10T23:35:19.119Z,0.30
2018-04-10T23:37:48.305Z,0.30
2018-04-10T23:40:17.434Z,0.30
2018-04-10T23:42:46.569Z,0.30
2018-04-10T23:45:16.137Z,0.30
2018-04-10T23:47:45.285Z,0.30
2018-04-10T23:50:14.399Z,0.30
2018-04-10T23:52:43.829Z,0.30
2018-04-10T23:55:12.963Z,0.30
2018-04-10T23:57:42.091Z,0.30
